• Join FlightAware (Why Join?)
  • Login
  • US Flag 
12:37AM EDT


 

Airport Tracker/Info


-or-


 

Live Flight TrackerFlight Track Log ✈ AFL150 ✈ 24-Nov-2013 ✈ UUEE / SVO - MUHA / HAV

Flight Track Log - Related Links

Times and Time Zones

All times are in EST time to prevent confusion due to time zone crossing. See the AFL150 flight status page for this flight to view local times or setup timezone preferences in your user account.

Time Position Orientation Groundspeed Altitude Reporting Facility
EST Latitude Longitude Course Direction KTS MPH feet Rate Location/Type
04:35AM 56.0505 37.1435 319° Northwest  Level FlightAware Approximate
04:36AM 56.1474 36.9940 319° Northwest  Level FlightAware Approximate
04:37AM 56.2440 36.8438 319° Northwest  Level FlightAware Approximate
04:38AM 56.3405 36.6928 319° Northwest  Level FlightAware Approximate
04:39AM 56.4368 36.5410 319° Northwest  Level FlightAware Approximate
04:40AM 56.5329 36.3885 319° Northwest  Level FlightAware Approximate
04:41AM 56.6288 36.2352 319° Northwest  Level FlightAware Approximate
04:42AM 56.7245 36.0811 319° Northwest  Level FlightAware Approximate
04:43AM 56.8200 35.9262 318° Northwest  Level FlightAware Approximate
04:44AM 56.9154 35.7706 318° Northwest  Level FlightAware Approximate
04:45AM 57.0105 35.6141 318° Northwest  Level FlightAware Approximate
04:46AM 57.1055 35.4569 318° Northwest  Level FlightAware Approximate
04:47AM 57.2002 35.2988 318° Northwest  Level FlightAware Approximate
04:48AM 57.2948 35.1399 318° Northwest  Level FlightAware Approximate
04:49AM 57.3891 34.9802 318° Northwest  Level FlightAware Approximate
04:50AM 57.4833 34.8197 318° Northwest  Level FlightAware Approximate
04:51AM 57.5772 34.6584 317° Northwest  Level FlightAware Approximate
04:52AM 57.6710 34.4962 317° Northwest  Level FlightAware Approximate
04:53AM 57.7429 34.2985 314° West  Level Estimated
04:54AM 57.8307 34.1244 313° West  Level FlightAware Approximate
04:55AM 57.9183 33.9494 313° West  Level FlightAware Approximate
04:56AM 58.0056 33.7736 313° West  Level FlightAware Approximate
04:57AM 58.0927 33.5969 313° West  Level FlightAware Approximate
04:58AM 58.1796 33.4194 313° West  Level FlightAware Approximate
04:59AM 58.2662 33.2410 313° West  Level FlightAware Approximate
05:00AM 58.3525 33.0617 313° West  Level FlightAware Approximate
05:01AM 58.4386 32.8815 312° West  Level FlightAware Approximate
05:02AM 58.5245 32.7005 312° West  Level FlightAware Approximate
05:03AM 58.6101 32.5185 312° West  Level FlightAware Approximate
05:04AM 58.6954 32.3357 312° West  Level FlightAware Approximate
05:05AM 58.7805 32.1520 312° West  Level FlightAware Approximate
05:06AM 58.8653 31.9674 312° West  Level FlightAware Approximate
05:07AM 58.9498 31.7818 312° West  Level FlightAware Approximate
05:08AM 59.0341 31.5954 311° West  Level FlightAware Approximate
05:09AM 59.1181 31.4081 311° West  Level FlightAware Approximate
05:10AM 59.2019 31.2198 311° West  Level FlightAware Approximate
05:11AM 59.2853 31.0306 311° West  Level FlightAware Approximate
05:12AM 59.3685 30.8405 311° West  Level FlightAware Approximate
05:13AM 59.4514 30.6494 311° West  Level FlightAware Approximate
05:14AM 59.5341 30.4574 310° West  Level FlightAware Approximate
05:15AM 59.6164 30.2645 310° West  Level FlightAware Approximate
05:16AM 59.6985 30.0706 310° West  Level FlightAware Approximate
05:17AM 59.7803 29.8757 310° West  Level FlightAware Approximate
05:18AM 59.8618 29.6799 310° West  Level FlightAware Approximate
05:19AM 59.9430 29.4832 310° West  Level FlightAware Approximate
05:20AM 60.0239 29.2855 309° West  Level FlightAware Approximate
05:21AM 60.1045 29.0868 309° West  Level FlightAware Approximate
05:22AM 60.1848 28.8871 309° West  Level FlightAware Approximate
05:23AM 60.2648 28.6865 309° West  Level FlightAware Approximate
05:24AM 60.3445 28.4848 309° West  Level FlightAware Approximate
05:25AM 60.4239 28.2822 309° West  Level FlightAware Approximate
05:26AM 60.5030 28.0787 308° West  Level FlightAware Approximate
05:27AM 60.5817 27.8741 308° West  Level FlightAware Approximate
05:28AM 60.6602 27.6685 308° West  Level FlightAware Approximate
05:29AM 60.7383 27.4619 308° West  Level FlightAware Approximate
05:30AM 60.8162 27.2543 308° West  Level FlightAware Approximate
05:31AM 60.8937 27.0457 307° West  Level FlightAware Approximate
05:32AM 60.9709 26.8361 307° West  Level FlightAware Approximate
05:33AM 61.0477 26.6255 307° West  Level FlightAware Approximate
05:34AM 61.1242 26.4138 307° West  Level FlightAware Approximate
05:35AM 61.2004 26.2011 307° West  Level FlightAware Approximate
05:36AM 61.2763 25.9874 307° West  Level FlightAware Approximate
05:37AM 61.3518 25.7727 306° West  Level FlightAware Approximate
05:38AM 61.4270 25.5569 306° West  Level FlightAware Approximate
05:39AM 61.5018 25.3401 306° West  Level FlightAware Approximate
05:40AM 61.5763 25.1222 306° West  Level FlightAware Approximate
05:41AM 61.6504 24.9033 306° West  Level FlightAware Approximate
05:42AM 61.7242 24.6833 305° West  Level FlightAware Approximate
05:43AM 61.7976 24.4623 305° West  Level FlightAware Approximate
05:44AM 61.8707 24.2403 305° West  Level FlightAware Approximate
05:45AM 61.9434 24.0171 305° West  Level FlightAware Approximate
05:46AM 62.0158 23.7929 305° West  Level FlightAware Approximate
05:47AM 62.0878 23.5677 304° West  Level FlightAware Approximate
05:48AM 62.1594 23.3414 304° West  Level FlightAware Approximate
05:49AM 62.2307 23.1140 304° West  Level FlightAware Approximate
05:50AM 62.3015 22.8855 304° West  Level FlightAware Approximate
05:51AM 62.3720 22.6559 304° West  Level FlightAware Approximate
05:52AM 62.4422 22.4253 303° West  Level FlightAware Approximate
05:53AM 62.5119 22.1936 303° West  Level FlightAware Approximate
05:54AM 62.5812 21.9608 303° West  Level FlightAware Approximate
05:54AM 58.8318 21.5280 303° West 437 503 36,000  Level FlightAware ADS-B (YKMB / KRB)
05:54AM 58.8474 21.4053 284° West 439 505 36,000  Level FlightAware ADS-B (YKMB / KRB)
05:55AM 58.8627 21.2844 284° West 440 506 36,000  Level FlightAware ADS-B (YKMB / KRB)
05:57AM 58.9595 20.8487 293° West  Level Estimated
05:58AM 59.0094 20.6205 293° West  Level Estimated
05:58AM 58.9849 20.5470 293° West 440 506 36,000  Level FlightAware ADS-B (YKMB / KRB)
05:58AM 59.0053 20.4207 287° West 438 504 36,000  Level FlightAware ADS-B (YKMB / KRB)
05:59AM 59.0236 20.3070 287° West 436 502 36,000  Level FlightAware ADS-B (YKMB / KRB)
05:59AM 59.0413 20.1951 287° West 435 501 36,000  Level FlightAware ADS-B (YKMB / KRB)
06:00AM 59.0591 20.0828 287° West 438 504 36,000  Level FlightAware ADS-B (YKMB / KRB)
06:00AM 59.0771 19.9691 287° West 439 505 36,000  Level FlightAware ADS-B (YKMB / KRB)
06:01AM 59.0952 19.8536 287° West 439 505 36,000  Level FlightAware ADS-B (YKMB / KRB)
06:01AM 59.1130 19.7390 287° West 442 509 36,000  Level FlightAware ADS-B (YKMB / KRB)
06:02AM 59.1303 19.6267 287° West 445 512 36,000  Level FlightAware ADS-B (YKMB / KRB)
06:03AM 59.1543 19.4705 287° West 447 514 36,000  Level FlightAware ADS-B (YKMB / KRB)
06:03AM 59.1717 19.3558 287° West 449 517 36,000  Level FlightAware ADS-B (YKMB / KRB)
06:04AM 59.1892 19.2399 286° West 446 513 36,000  Level FlightAware ADS-B (YKMB / KRB)
06:04AM 59.2068 19.1220 286° West 446 513 36,000  Level FlightAware ADS-B (YKMB / KRB)
06:05AM 59.2296 18.9683 286° West 447 514 36,000  Level FlightAware ADS-B (YKMB / KRB)
06:05AM 59.2468 18.8516 286° West 446 513 36,000  Level FlightAware ADS-B (YKMB / KRB)
06:06AM 59.2642 18.7331 286° West 446 513 36,000  Level FlightAware ADS-B (YKMB / KRB)
06:06AM 59.2868 18.5770 286° West 448 516 36,000  Level FlightAware ADS-B (YKMB / KRB)
06:07AM 59.3093 18.4203 286° West 449 517 36,000  Level FlightAware ADS-B (YKMB / KRB)
06:08AM 59.3262 18.3015 286° West 443 510 36,000  Level FlightAware ADS-B (YKMB / KRB)
06:08AM 59.3477 18.1499 286° West 444 511 36,000  Level FlightAware ADS-B (YKMB / KRB)
06:09AM 59.3643 18.0317 285° West 446 513 36,000  Level FlightAware ADS-B (YKMB / KRB)
06:09AM 59.3802 17.9168 285° West 444 511 36,000  Level FlightAware ADS-B (YKMB / KRB)
06:10AM 59.4017 17.7612 285° West 443 510 36,000  Level FlightAware ADS-B (YKMB / KRB)
06:10AM 59.4177 17.6439 285° West 444 511 36,000  Level FlightAware ADS-B (YKMB / KRB)
06:11AM 59.4338 17.5254 285° West 445 512 36,000  Level FlightAware ADS-B (YKMB / KRB)
06:12AM 59.4553 17.3657 285° West 446 513 36,000  Level FlightAware ADS-B (YKMB / KRB)
06:12AM 59.4753 17.2156 285° West 442 509 36,000  Level FlightAware ADS-B (YKMB / KRB)
06:13AM 59.4950 17.0661 285° West 438 504 36,000  Level FlightAware ADS-B (YKMB / KRB)
06:13AM 59.5109 16.9435 284° West 437 503 36,000  Level FlightAware ADS-B (YKMB / KRB)
06:14AM 59.5260 16.8268 284° West 435 501 36,000  Level FlightAware ADS-B (YKMB / KRB)
06:15AM 59.5436 16.6900 284° West 435 501 36,000  Level FlightAware ADS-B (YKMB / KRB)
06:15AM 59.5587 16.5718 284° West 436 502 36,000  Level FlightAware ADS-B (YKMB / KRB)
06:16AM 59.5825 16.3822 284° West 440 506 36,000  Level FlightAware ADS-B (YKMB / KRB)
06:17AM 59.6045 16.2064 284° West 440 506 36,000  Level FlightAware ADS-B (YKMB / KRB)
06:17AM 59.6214 16.0690 284° West 445 512 36,000  Level FlightAware ADS-B (YKMB / KRB)
06:20AM 59.7149 15.5261 289° West  Level Estimated
06:21AM 59.7554 15.2857 289° West  Level Estimated
06:22AM 59.7955 15.0446 288° West  Level Estimated
06:23AM 59.8351 14.8030 288° West  Level Estimated
06:24AM 59.8743 14.5609 288° West  Level Estimated
06:25AM 59.9131 14.3181 288° West  Level Estimated
06:26AM 59.9514 14.0748 288° West  Level Estimated
06:27AM 59.9892 13.8309 287° West  Level Estimated
06:28AM 60.0266 13.5865 287° West  Level Estimated
06:29AM 60.0636 13.3415 287° West  Level Estimated
06:30AM 60.1001 13.0960 287° West  Level Estimated
06:31AM 60.1361 12.8499 286° West  Level Estimated
06:32AM 60.1717 12.6033 286° West  Level Estimated
06:33AM 60.2068 12.3562 286° West  Level Estimated
06:34AM 60.2415 12.1085 286° West  Level Estimated
06:35AM 60.2757 11.8603 286° West  Level Estimated
06:36AM 60.3094 11.6117 285° West  Level Estimated
06:37AM 60.3427 11.3624 285° West  Level Estimated
06:38AM 60.3755 11.1127 285° West  Level Estimated
06:39AM 60.4078 10.8625 285° West  Level Estimated
06:40AM 60.4397 10.6118 285° West  Level Estimated
06:41AM 60.4711 10.3606 284° West  Level Estimated
06:42AM 60.5020 10.1089 284° West  Level Estimated
06:43AM 60.5325 9.8568 284° West  Level Estimated
06:44AM 60.5625 9.6041 284° West  Level Estimated
06:45AM 60.5919 9.3511 283° West  Level Estimated
06:46AM 60.6210 9.0975 283° West  Level Estimated
06:47AM 60.6495 8.8435 283° West  Level Estimated
06:48AM 60.6775 8.5891 283° West  Level Estimated
06:49AM 60.7051 8.3342 283° West  Level Estimated
06:50AM 60.7322 8.0788 282° West  Level Estimated
06:51AM 60.7588 7.8231 282° West  Level Estimated
06:52AM 60.7849 7.5669 282° West  Level Estimated
06:53AM 60.8105 7.3103 282° West  Level Estimated
06:54AM 60.8357 7.0534 281° West  Level Estimated
06:54AM 60.6396 7.5499 281° West 418 481 36,000  Level FlightAware ADS-B (EGBP)
06:55AM 60.6558 7.3948 282° West 419 482 36,000  Level FlightAware ADS-B (EGBP)
06:55AM 60.6704 7.2550 282° West 417 480 36,000  Level FlightAware ADS-B (EGBP)
06:56AM 60.6833 7.1285 282° West 413 475 36,000  Level FlightAware ADS-B (EGBP)
06:56AM 60.6949 7.0167 282° West 412 474 36,000  Level FlightAware ADS-B (EGBP)
06:57AM 60.7089 6.8776 282° West 413 475 36,000  Level FlightAware ADS-B (EGBP)
06:57AM 60.7209 6.7567 281° West 408 470 36,000  Level FlightAware ADS-B (EGBP)
06:58AM 60.7320 6.6452 282° West 407 468 36,000  Level FlightAware ADS-B (EGBP)
06:58AM 60.7441 6.5233 281° West 403 464 36,000  Level FlightAware ADS-B (EGBP)
06:59AM 60.7588 6.3724 281° West 410 472 36,000  Level FlightAware ADS-B (EGBP)
07:00AM 60.7699 6.2573 281° West 410 472 36,000  Level FlightAware ADS-B (EGBP)
07:00AM 60.7838 6.1089 281° West 407 468 36,000  Level FlightAware ADS-B (EGBP)
07:01AM 60.7944 5.9965 281° West 406 467 36,000  Level FlightAware ADS-B (EGBP)
07:01AM 60.8077 5.8538 281° West 407 468 36,000  Level FlightAware ADS-B (EGBP)
07:02AM 60.8188 5.7320 281° West 406 467 36,000  Level FlightAware ADS-B (EGBP)
07:02AM 60.8319 5.5889 281° West 408 470 36,000  Level FlightAware ADS-B (EGBP)
07:03AM 60.8445 5.4480 280° West 408 470 36,000  Level FlightAware ADS-B (EGBP)
07:06AM 60.8957 4.8268 280° West  Level Estimated
07:07AM 60.9162 4.5674 279° West  Level Estimated
07:08AM 60.9362 4.3077 279° West  Level Estimated
07:09AM 60.9557 4.0477 279° West  Level Estimated
07:10AM 60.9746 3.7873 279° West  Level Estimated
07:11AM 60.9931 3.5266 278° West  Level Estimated
07:12AM 61.0111 3.2657 278° West  Level Estimated
07:13AM 61.0286 3.0044 278° West  Level Estimated
07:14AM 61.0455 2.7429 278° West  Level Estimated
07:15AM 61.0620 2.4811 278° West  Level Estimated
07:16AM 61.0779 2.2190 277° West  Level Estimated
07:17AM 61.0934 1.9566 277° West  Level Estimated
07:18AM 61.1083 1.6940 277° West  Level Estimated
07:19AM 61.1227 1.4312 277° West  Level Estimated
07:20AM 61.1366 1.1681 276° West  Level Estimated
07:21AM 61.1500 0.9048 276° West  Level Estimated
07:22AM 61.1629 0.6413 276° West  Level Estimated
07:23AM 61.1753 0.3775 276° West  Level Estimated
07:24AM 61.1872 0.1136 275° West  Level Estimated
07:25AM 61.1985 -0.1505 275° West  Level Estimated
07:26AM 61.2094 -0.4149 275° West  Level Estimated
07:27AM 61.2197 -0.6794 275° West  Level Estimated
07:28AM 61.2295 -0.9440 275° West  Level Estimated
07:29AM 61.2388 -1.2089 274° West  Level Estimated
07:30AM 61.2475 -1.4739 274° West  Level Estimated
07:31AM 61.2558 -1.7390 274° West  Level Estimated
07:32AM 61.2635 -2.0042 274° West  Level Estimated
07:33AM 61.2708 -2.2696 273° West  Level Estimated
07:34AM 61.2775 -2.5351 273° West  Level Estimated
07:35AM 61.2836 -2.8007 273° West  Level Estimated
07:36AM 61.2893 -3.0664 273° West  Level Estimated
07:37AM 61.2944 -3.3322 272° West  Level Estimated
07:38AM 61.2991 -3.5981 272° West  Level Estimated
07:39AM 61.3032 -3.8641 272° West  Level Estimated
07:40AM 61.3068 -4.1301 272° West  Level Estimated
07:41AM 61.3098 -4.3962 271° West  Level Estimated
07:42AM 61.3124 -4.6623 271° West  Level Estimated
07:43AM 61.3144 -4.9285 271° West  Level Estimated
07:44AM 61.3159 -5.1947 271° West  Level Estimated
07:45AM 61.3169 -5.4609 271° West  Level Estimated
07:46AM 61.3173 -5.7271 270° West  Level Estimated
07:47AM 61.3173 -5.9934 270° West  Level Estimated
07:48AM 61.3167 -6.2596 270° West  Level Estimated
07:49AM 61.3156 -6.5258 270° West  Level Estimated
07:50AM 61.3140 -6.7920 269° West  Level Estimated
07:51AM 61.3119 -7.0581 269° West  Level Estimated
07:52AM 61.3092 -7.3243 269° West  Level Estimated
07:53AM 61.3060 -7.5903 269° West  Level Estimated
07:54AM 61.3023 -7.8563 268° West  Level Estimated
07:55AM 61.2981 -8.1223 268° West  Level Estimated
07:56AM 61.2934 -8.3882 268° West  Level Estimated
07:57AM 61.2881 -8.6539 268° West  Level Estimated
07:58AM 61.2823 -8.9196 268° West  Level Estimated
07:59AM 61.2760 -9.1852 267° West  Level Estimated
08:00AM 61.2692 -9.4507 267° West  Level Estimated
08:01AM 61.2618 -9.7161 267° West  Level Estimated
08:02AM 61.2540 -9.9813 267° West  Level Estimated
08:03AM 61.2456 -10.2464 266° West  Level Estimated
08:04AM 61.2367 -10.5113 266° West  Level Estimated
08:05AM 61.2273 -10.7761 266° West  Level Estimated
08:06AM 61.2174 -11.0407 266° West  Level Estimated
08:07AM 61.2070 -11.3052 265° West  Level Estimated
08:08AM 61.1960 -11.5695 265° West  Level Estimated
08:09AM 61.1845 -11.8336 265° West  Level Estimated
08:10AM 61.1726 -12.0975 265° West  Level Estimated
08:11AM 61.1601 -12.3612 265° West  Level Estimated
08:12AM 61.1471 -12.6246 264° West  Level Estimated
08:13AM 61.1335 -12.8879 264° West  Level Estimated
08:14AM 61.1195 -13.1509 264° West  Level Estimated
08:15AM 61.1050 -13.4137 264° West  Level Estimated
08:16AM 61.0899 -13.6763 263° West  Level Estimated
08:17AM 61.0744 -13.9385 263° West  Level Estimated
08:18AM 61.0583 -14.2006 263° West  Level Estimated
08:19AM 61.0417 -14.4623 263° West  Level Estimated
08:20AM 61.0246 -14.7238 262° West  Level Estimated
08:21AM 61.0071 -14.9850 262° West  Level Estimated
08:22AM 60.9890 -15.2459 262° West  Level Estimated
08:23AM 60.9704 -15.5065 262° West  Level Estimated
08:24AM 60.9513 -15.7668 262° West  Level Estimated
08:25AM 60.9317 -16.0268 261° West  Level Estimated
08:26AM 60.9116 -16.2864 261° West  Level Estimated
08:27AM 60.8910 -16.5457 261° West  Level Estimated
08:28AM 60.8699 -16.8047 261° West  Level Estimated
08:29AM 60.8483 -17.0633 260° West  Level Estimated
08:30AM 60.8262 -17.3216 260° West  Level Estimated
08:31AM 60.8037 -17.5795 260° West  Level Estimated
08:32AM 60.7806 -17.8371 260° West  Level Estimated
08:33AM 60.7570 -18.0943 259° West  Level Estimated
08:34AM 60.7330 -18.3511 259° West  Level Estimated
08:35AM 60.7084 -18.6075 259° West  Level Estimated
08:36AM 60.6834 -18.8635 259° West  Level Estimated
08:37AM 60.6578 -19.1191 259° West  Level Estimated
08:38AM 60.6318 -19.3743 258° West  Level Estimated
08:39AM 60.6053 -19.6291 258° West  Level Estimated
08:40AM 60.5784 -19.8835 258° West  Level Estimated
08:41AM 60.5509 -20.1374 258° West  Level Estimated
08:42AM 60.5230 -20.3909 257° West  Level Estimated
08:43AM 60.4945 -20.6440 257° West  Level Estimated
08:44AM 60.4656 -20.8966 257° West  Level Estimated
08:45AM 60.4363 -21.1487 257° West  Level Estimated
08:46AM 60.4064 -21.4004 257° West  Level Estimated
08:47AM 60.3761 -21.6517 256° West  Level Estimated
08:48AM 60.3453 -21.9025 256° West  Level Estimated
08:49AM 60.3140 -22.1527 256° West  Level Estimated
08:50AM 60.2823 -22.4025 256° West  Level Estimated
08:51AM 60.2501 -22.6519 256° West  Level Estimated
08:52AM 60.2174 -22.9007 255° West  Level Estimated
08:53AM 60.1842 -23.1490 255° West  Level Estimated
08:54AM 60.1507 -23.3969 255° West  Level Estimated
08:55AM 60.1166 -23.6442 255° West  Level Estimated
08:56AM 60.0821 -23.8910 254° West  Level Estimated
08:57AM 60.0471 -24.1372 254° West  Level Estimated
08:58AM 60.0116 -24.3830 254° West  Level Estimated
08:59AM 59.9757 -24.6282 254° West  Level Estimated
09:00AM 59.9394 -24.8729 254° West  Level Estimated
09:01AM 59.9026 -25.1171 253° West  Level Estimated
09:02AM 59.8653 -25.3607 253° West  Level Estimated
09:03AM 59.8276 -25.6037 253° West  Level Estimated
09:04AM 59.7895 -25.8462 253° West  Level Estimated
09:05AM 59.7509 -26.0882 253° West  Level Estimated
09:06AM 59.7119 -26.3296 252° West  Level Estimated
09:07AM 59.6724 -26.5704 252° West  Level Estimated
09:08AM 59.6325 -26.8106 252° West  Level Estimated
09:09AM 59.5921 -27.0503 252° West  Level Estimated
09:10AM 59.5513 -27.2894 251° West  Level Estimated
09:11AM 59.5101 -27.5279 251° West  Level Estimated
09:12AM 59.4684 -27.7659 251° West  Level Estimated
09:13AM 59.4263 -28.0032 251° West  Level Estimated
09:14AM 59.3838 -28.2400 251° West  Level Estimated
09:15AM 59.3409 -28.4761 250° West  Level Estimated
09:16AM 59.2975 -28.7117 250° West  Level Estimated
09:17AM 59.2537 -28.9466 250° West  Level Estimated
09:18AM 59.2095 -29.1810 250° West  Level Estimated
09:19AM 59.1648 -29.4147 250° West  Level Estimated
09:20AM 59.1198 -29.6479 249° West  Level Estimated
09:21AM 59.0743 -29.8804 249° West  Level Estimated
09:22AM 59.0284 -30.1122 249° West  Level Estimated
09:23AM 58.9821 -30.3435 249° West  Level Estimated
09:24AM 58.9354 -30.5742 249° West  Level Estimated
09:25AM 58.8882 -30.8042 248° West  Level Estimated
09:26AM 58.8407 -31.0336 248° West  Level Estimated
09:27AM 58.7928 -31.2623 248° West  Level Estimated
09:28AM 58.7444 -31.4905 248° West  Level Estimated
09:29AM 58.6957 -31.7180 248° West  Level Estimated
09:30AM 58.6465 -31.9448 247° West  Level Estimated
09:31AM 58.5970 -32.1710 247° West  Level Estimated
09:32AM 58.5471 -32.3966 247° West  Level Estimated
09:33AM 58.4967 -32.6215 247° West  Level Estimated
09:34AM 58.4460 -32.8458 247° West  Level Estimated
09:35AM 58.3949 -33.0694 247° West  Level Estimated
09:36AM 58.3434 -33.2924 246° West  Level Estimated
09:37AM 58.2915 -33.5147 246° West  Level Estimated
09:38AM 58.2392 -33.7364 246° West  Level Estimated
09:39AM 58.1866 -33.9574 246° West  Level Estimated
09:40AM 58.1335 -34.1778 246° West  Level Estimated
09:41AM 58.0801 -34.3975 245° Southwest  Level Estimated
09:42AM 58.0263 -34.6166 245° Southwest  Level Estimated
09:43AM 57.9721 -34.8350 245° Southwest  Level Estimated
09:44AM 57.9176 -35.0527 245° Southwest  Level Estimated
09:45AM 57.8627 -35.2698 245° Southwest  Level Estimated
09:46AM 57.8074 -35.4862 244° Southwest  Level Estimated
09:47AM 57.7518 -35.7019 244° Southwest  Level Estimated
09:48AM 57.6957 -35.9170 244° Southwest  Level Estimated
09:49AM 57.6394 -36.1314 244° Southwest  Level Estimated
09:50AM 57.5826 -36.3451 244° Southwest  Level Estimated
09:51AM 57.5255 -36.5582 244° Southwest  Level Estimated
09:52AM 57.4680 -36.7706 243° Southwest  Level Estimated
09:53AM 57.4102 -36.9823 243° Southwest  Level Estimated
09:54AM 57.3521 -37.1934 243° Southwest  Level Estimated
09:55AM 57.2935 -37.4038 243° Southwest  Level Estimated
09:56AM 57.2347 -37.6135 243° Southwest  Level Estimated
09:57AM 57.1755 -37.8225 242° Southwest  Level Estimated
09:58AM 57.1159 -38.0309 242° Southwest  Level Estimated
09:59AM 57.0560 -38.2386 242° Southwest  Level Estimated
10:00AM 56.9957 -38.4457 242° Southwest  Level Estimated
10:01AM 56.9351 -38.6520 242° Southwest  Level Estimated
10:02AM 56.8742 -38.8577 242° Southwest  Level Estimated
10:03AM 56.8129 -39.0628 241° Southwest  Level Estimated
10:04AM 56.7513 -39.2671 241° Southwest  Level Estimated
10:05AM 56.6894 -39.4708 241° Southwest  Level Estimated
10:06AM 56.6271 -39.6738 241° Southwest  Level Estimated
10:07AM 56.5645 -39.8762 241° Southwest  Level Estimated
10:08AM 56.5016 -40.0778 241° Southwest  Level Estimated
10:08AM 65.0000 -40.0000 261° West 467 537 36,000  Level ETMS Enhanced Traffic Management System
10:09AM 56.4384 -40.2788 240° Southwest  Level Estimated
10:10AM 56.3748 -40.4792 240° Southwest  Level Estimated
10:11AM 56.3109 -40.6788 240° Southwest  Level Estimated
10:12AM 56.2467 -40.8778 240° Southwest  Level Estimated
10:13AM 56.1821 -41.0762 240° Southwest  Level Estimated
10:14AM 56.1173 -41.2738 240° Southwest  Level Estimated
10:15AM 64.7512 -43.3129 258° West 467 537 36,000  Level FlightAware Transoceanic
10:16AM 64.7249 -43.6109 258° West 467 537 36,000  Level FlightAware Transoceanic
10:17AM 64.6981 -43.9082 258° West 467 537 36,000  Level FlightAware Transoceanic
10:18AM 64.6706 -44.2050 258° West 467 537 36,000  Level FlightAware Transoceanic
10:19AM 64.6426 -44.5012 257° West 467 537 36,000  Level FlightAware Transoceanic
10:20AM 64.6140 -44.7968 257° West 467 537 36,000  Level FlightAware Transoceanic
10:21AM 64.5847 -45.0917 257° West 467 537 36,000  Level FlightAware Transoceanic
10:22AM 64.5549 -45.3860 257° West 467 537 36,000  Level FlightAware Transoceanic
10:23AM 64.5246 -45.6797 256° West 467 537 36,000  Level FlightAware Transoceanic
10:24AM 64.4936 -45.9727 256° West 467 537 36,000  Level FlightAware Transoceanic
10:25AM 64.4620 -46.2650 256° West 467 537 36,000  Level FlightAware Transoceanic
10:26AM 64.4299 -46.5566 256° West 467 537 36,000  Level FlightAware Transoceanic
10:27AM 64.3972 -46.8476 255° West 467 537 36,000  Level FlightAware Transoceanic
10:28AM 64.3639 -47.1378 255° West 467 537 36,000  Level FlightAware Transoceanic
10:29AM 64.3301 -47.4274 255° West 467 537 36,000  Level FlightAware Transoceanic
10:30AM 64.2956 -47.7162 254° West 467 537 36,000  Level FlightAware Transoceanic
10:31AM 64.2606 -48.0043 254° West 467 537 36,000  Level FlightAware Transoceanic
10:32AM 64.2251 -48.2917 254° West 467 537 36,000  Level FlightAware Transoceanic
10:33AM 64.1890 -48.5783 254° West 467 537 36,000  Level FlightAware Transoceanic
10:34AM 64.1523 -48.8642 253° West 467 537 36,000  Level FlightAware Transoceanic
10:35AM 64.1150 -49.1493 253° West 467 537 36,000  Level FlightAware Transoceanic
10:36AM 64.0772 -49.4337 253° West 467 537 36,000  Level FlightAware Transoceanic
10:37AM 64.0389 -49.7172 253° West 467 537 36,000 -540 Level FlightAware Transoceanic
10:38AM 63.9459 -49.9171 223° Southwest  Level Estimated
10:39AM 63.8527 -50.1157 223° Southwest  Level Estimated
10:40AM 63.7592 -50.3130 223° Southwest  Level Estimated
10:40AM 64.0000 -50.0000 251° West 482 555 34,000  Level ETMS Enhanced Traffic Management System
10:41AM 63.6654 -50.5090 223° Southwest  Level Estimated
10:42AM 63.5714 -50.7037 223° Southwest  Level Estimated
10:43AM 63.4771 -50.8971 223° Southwest  Level Estimated
10:44AM 63.3825 -51.0893 222° Southwest  Level Estimated
10:45AM 63.2877 -51.2802 222° Southwest  Level Estimated
10:46AM 63.6770 -51.9956 249° West 482 555 34,000  Level FlightAware Transoceanic
10:47AM 63.6286 -52.2770 249° West 482 555 34,000  Level FlightAware Transoceanic
10:48AM 63.5797 -52.5573 248° West 482 555 34,000  Level FlightAware Transoceanic
10:49AM 63.5302 -52.8367 248° West 482 555 34,000  Level FlightAware Transoceanic
10:50AM 63.4802 -53.1151 248° West 482 555 34,000  Level FlightAware Transoceanic
10:51AM 63.4296 -53.3925 248° West 482 555 34,000  Level FlightAware Transoceanic
10:52AM 63.3786 -53.6690 247° West 482 555 34,000  Level FlightAware Transoceanic
10:53AM 63.3269 -53.9445 247° West 482 555 34,000  Level FlightAware Transoceanic
10:54AM 63.2748 -54.2189 247° West 482 555 34,000  Level FlightAware Transoceanic
10:55AM 63.2221 -54.4924 247° West 482 555 34,000  Level FlightAware Transoceanic
10:56AM 63.1689 -54.7649 246° West 482 555 34,000  Level FlightAware Transoceanic
10:57AM 63.1152 -55.0364 246° West 482 555 34,000  Level FlightAware Transoceanic
10:58AM 63.0610 -55.3068 246° West 482 555 34,000  Level FlightAware Transoceanic
10:59AM 63.0062 -55.5763 246° West 482 555 34,000  Level FlightAware Transoceanic
11:00AM 62.9510 -55.8447 246° West 482 555 34,000  Level FlightAware Transoceanic
11:01AM 62.8952 -56.1122 245° Southwest 482 555 34,000  Level FlightAware Transoceanic
11:02AM 62.8390 -56.3786 245° Southwest 482 555 34,000  Level FlightAware Transoceanic
11:03AM 62.7822 -56.6440 245° Southwest 482 555 34,000  Level FlightAware Transoceanic
11:04AM 62.7249 -56.9083 245° Southwest 482 555 34,000  Level FlightAware Transoceanic
11:05AM 62.6671 -57.1716 244° Southwest 482 555 34,000  Level FlightAware Transoceanic
11:06AM 62.6089 -57.4340 244° Southwest 482 555 34,000  Level FlightAware Transoceanic
11:07AM 62.5502 -57.6952 244° Southwest 482 555 34,000  Level FlightAware Transoceanic
11:08AM 62.4909 -57.9555 244° Southwest 482 555 34,000  Level FlightAware Transoceanic
11:09AM 62.4312 -58.2147 243° Southwest 482 555 34,000  Level FlightAware Transoceanic
11:10AM 62.3710 -58.4728 243° Southwest 482 555 34,000  Level FlightAware Transoceanic
11:11AM 62.3104 -58.7300 243° Southwest 482 555 34,000  Level FlightAware Transoceanic
11:12AM 62.2492 -58.9861 243° Southwest 482 555 34,000  Level FlightAware Transoceanic
11:13AM 62.1876 -59.2411 242° Southwest 482 555 34,000  Level FlightAware Transoceanic
11:13AM 62.2167 -59.1833 221° Southwest 410 472 34,000  Level Gander Center
11:14AM 62.1255 -59.4951 242° Southwest 482 555 34,000  Level FlightAware Transoceanic
11:14AM 62.1500 -59.4667 243° Southwest 480 552 34,000  Level Gander Center
11:15AM 62.0630 -59.7481 242° Southwest 482 555 34,000  Level FlightAware Transoceanic
11:15AM 62.0833 -59.6833 237° Southwest 480 552 34,000  Level Gander Center
11:16AM 62.0034 -59.9865 242° Southwest  Level FlightAware Approximate
11:16AM 62.0167 -59.9000 237° Southwest 470 541 34,000  Level Gander Center
11:17AM 61.9433 -60.2240 242° Southwest  Level FlightAware Approximate
11:17AM 61.9333 -60.1500 235° Southwest 470 541 35,500  Level Gander Center
11:18AM 61.9153 -60.1570 221° Southwest  Level FlightAware Approximate
11:18AM 61.8667 -60.4000 241° Southwest 470 541 36,000  Level Gander Center
11:19AM 61.8195 -60.3331 221° Southwest  Level FlightAware Approximate
11:19AM 61.8000 -60.5833 232° Southwest 470 541 36,000  Level Gander Center
11:20AM 61.7167 -60.8333 235° Southwest 460 529 36,000  Level Gander Center
11:21AM 61.6500 -61.0333 235° Southwest 460 529 36,000  Level Gander Center
11:22AM 61.5667 -61.2500 231° Southwest 460 529 36,000  Level Gander Center
11:23AM 61.5000 -61.4500 235° Southwest 460 529 36,000  Level Gander Center
11:24AM 61.4167 -61.6667 231° Southwest 470 541 36,000  Level Gander Center
11:25AM 61.3500 -61.9000 239° Southwest 460 529 36,000  Level Gander Center
11:26AM 61.2667 -62.1167 231° Southwest 470 541 36,000  Level Gander Center
11:27AM 61.1833 -62.3500 234° Southwest 470 541 36,000  Level Gander Center
11:28AM 61.1000 -62.5500 229° Southwest 470 541 36,000  Level Gander Center
11:29AM 61.0167 -62.7500 229° Southwest 470 541 36,000  Level Gander Center
11:30AM 60.9500 -63.0000 241° Southwest 470 541 36,000  Level Gander Center
11:31AM 60.8667 -63.2000 229° Southwest 470 541 36,000  Level Gander Center
11:32AM 60.8000 -63.4333 240° Southwest 470 541 36,000  Level Gander Center
11:33AM 60.7167 -63.6333 230° Southwest 470 541 36,000  Level Gander Center
11:34AM 60.6333 -63.8167 227° Southwest 470 541 36,000  Level Gander Center
11:35AM 60.5500 -64.0167 230° Southwest 470 541 36,000  Level Gander Center
11:36AM 60.4667 -64.2500 234° Southwest 470 541 36,000  Level Gander Center
11:37AM 60.4000 -64.4500 236° Southwest 470 541 36,000  Level Gander Center
11:38AM 60.3167 -64.6333 227° Southwest 470 541 36,000  Level Gander Center
11:39AM 60.2333 -64.8333 230° Southwest 470 541 36,000  Level Gander Center
11:40AM 60.1500 -65.0167 228° Southwest 460 529 36,000  Level Gander Center
11:41AM 60.0667 -65.2500 234° Southwest 460 529 36,000  Level Gander Center
11:42AM 59.9500 -65.4000 213° Southwest 460 529 36,000  Level Gander Center
11:43AM 59.8667 -65.5667 225° Southwest 450 518 36,000  Level Gander Center
11:44AM 59.7833 -65.7500 228° Southwest 450 518 36,000  Level Gander Center
11:45AM 59.6667 -65.9000 213° Southwest 450 518 36,000  Level Gander Center
11:46AM 59.5833 -66.0500 222° Southwest 450 518 36,000  Level Gander Center
11:47AM 59.5000 -66.2000 222° Southwest 450 518 36,000  Level Gander Center
11:48AM 59.4000 -66.3500 217° Southwest 450 518 36,000  Level Gander Center
11:49AM 59.3000 -66.5333 223° Southwest 450 518 36,000  Level Gander Center
11:50AM 59.2167 -66.6833 223° Southwest 450 518 36,000  Level Gander Center
11:51AM 59.1167 -66.8333 218° Southwest 450 518 36,000  Level Gander Center
11:52AM 59.0333 -67.0167 229° Southwest 450 518 36,000  Level Gander Center
11:53AM 58.9167 -67.1667 214° Southwest 450 518 36,000  Level Gander Center
11:54AM 58.8333 -67.3000 220° Southwest 450 518 36,000  Level Gander Center
11:55AM 58.7333 -67.4833 224° Southwest 450 518 36,000  Level Gander Center
11:56AM 58.6333 -67.6333 218° Southwest 450 518 36,000  Level Gander Center
11:57AM 58.5500 -67.7667 220° Southwest 450 518 36,000  Level Gander Center
11:58AM 58.4333 -67.9167 214° Southwest 450 518 36,000  Level Gander Center
11:59AM 58.3500 -68.0833 226° Southwest 450 518 36,000  Level Gander Center
12:00PM 58.2500 -68.2333 218° Southwest 460 529 36,000  Level Gander Center
12:01PM 58.1500 -68.4000 221° Southwest 470 541 36,000  Level Gander Center
12:02PM 58.0667 -68.4500 198° South 520 598 36,000  Level Montreal Center
12:03PM 57.9500 -68.5667 208° Southwest 460 529 36,000  Level Montreal Center
12:04PM 57.8500 -68.7500 224° Southwest 460 529 36,000  Level Montreal Center
12:05PM 57.7500 -68.8667 212° Southwest 450 518 36,000  Level Montreal Center
12:06PM 57.6500 -69.0000 216° Southwest 450 518 36,000  Level Montreal Center
12:07PM 57.5500 -69.1500 219° Southwest 450 518 36,000  Level Montreal Center
12:08PM 57.4333 -69.3000 215° Southwest 460 529 36,000  Level Montreal Center
12:09PM 57.3500 -69.4000 213° Southwest 460 529 36,000  Level Montreal Center
12:10PM 57.2333 -69.5500 215° Southwest 460 529 36,000  Level Montreal Center
12:11PM 57.1333 -69.7000 219° Southwest 450 518 36,000  Level Montreal Center
12:12PM 57.0333 -69.8333 216° Southwest 450 518 36,000  Level Montreal Center
12:13PM 56.9333 -69.9667 216° Southwest 450 518 36,000  Level Montreal Center
12:14PM 56.8167 -70.0833 209° Southwest 450 518 36,000  Level Montreal Center
12:15PM 56.7333 -70.2167 221° Southwest 450 518 36,000  Level Montreal Center
12:16PM 56.6167 -70.3667 215° Southwest 450 518 36,000  Level Montreal Center
12:17PM 56.5000 -70.5000 212° Southwest 460 529 36,000  Level Montreal Center
12:18PM 56.4000 -70.6333 216° Southwest 460 529 36,000  Level Montreal Center
12:19PM 56.3000 -70.7667 217° Southwest 460 529 36,000  Level Montreal Center
12:20PM 56.1833 -70.8833 209° Southwest 460 529 36,000  Level Montreal Center
12:21PM 56.0833 -71.0167 217° Southwest 450 518 36,000  Level Montreal Center
12:22PM 55.9667 -71.1500 213° Southwest 450 518 36,000  Level Montreal Center
12:23PM 55.8833 -71.2500 214° Southwest 450 518 36,000  Level Montreal Center
12:24PM 55.7833 -71.3833 217° Southwest 440 506 36,000  Level Montreal Center
12:25PM 55.6833 -71.5167 217° Southwest 430 495 36,000  Level Montreal Center
12:26PM 55.5667 -71.6167 206° Southwest 440 506 36,000  Level Montreal Center
12:27PM 55.4667 -71.7500 217° Southwest 440 506 36,000  Level Montreal Center
12:28PM 55.3667 -71.8500 210° Southwest 440 506 36,000  Level Montreal Center
12:29PM 55.2667 -71.9667 214° Southwest 440 506 36,000  Level Montreal Center
12:30PM 55.1667 -72.1000 217° Southwest 430 495 36,000  Level Montreal Center
12:31PM 55.0667 -72.2000 210° Southwest 440 506 36,000  Level Montreal Center
12:32PM 54.9500 -72.3333 213° Southwest 440 506 36,000  Level Montreal Center
12:33PM 54.8500 -72.4500 214° Southwest 440 506 36,000  Level Montreal Center
12:34PM 54.7500 -72.5833 218° Southwest 440 506 36,000  Level Montreal Center
12:35PM 54.6500 -72.6667 206° Southwest 440 506 36,000  Level Montreal Center
12:36PM 54.5500 -72.8000 218° Southwest 440 506 36,000  Level Montreal Center
12:37PM 54.4500 -72.9167 214° Southwest 440 506 36,000  Level Montreal Center
12:38PM 54.3333 -73.0167 207° Southwest 440 506 36,000  Level Montreal Center
12:39PM 54.2333 -73.1333 214° Southwest 440 506 36,000  Level Montreal Center
12:40PM 54.1333 -73.2667 218° Southwest 440 506 36,000  Level Montreal Center
12:41PM 54.0167 -73.3500 203° Southwest 450 518 36,000  Level Montreal Center
12:42PM 53.9167 -73.4833 218° Southwest 440 506 36,000  Level Montreal Center
12:43PM 53.8167 -73.6000 215° Southwest 440 506 36,000  Level Montreal Center
12:44PM 53.7000 -73.6833 203° Southwest 450 518 36,000  Level Montreal Center
12:45PM 53.5833 -73.8000 211° Southwest 440 506 36,000  Level Montreal Center
12:46PM 53.4667 -73.9000 207° Southwest 440 506 36,000  Level Montreal Center
12:47PM 53.3667 -73.9833 206° Southwest 440 506 36,000  Level Montreal Center
12:48PM 53.2500 -74.0833 207° Southwest 440 506 36,000  Level Montreal Center
12:49PM 53.1333 -74.1667 203° Southwest 450 518 36,000  Level Montreal Center
12:50PM 53.0167 -74.2500 203° Southwest 450 518 36,000  Level Montreal Center
12:51PM 52.9167 -74.3500 211° Southwest 450 518 36,000  Level Montreal Center
12:52PM 52.8000 -74.4333 203° Southwest 450 518 36,000  Level Montreal Center
12:53PM 52.7000 -74.5500 215° Southwest 450 518 36,000  Level Montreal Center
12:54PM 52.5833 -74.6333 203° Southwest 450 518 36,000  Level Montreal Center
12:55PM 52.4500 -74.7167 201° Southwest 450 518 36,000  Level Montreal Center
12:56PM 52.3500 -74.8000 207° Southwest 450 518 36,000  Level Montreal Center
12:57PM 52.2333 -74.9000 208° Southwest 430 495 36,000  Level Montreal Center
12:58PM 52.1167 -74.9833 204° Southwest 450 518 36,000  Level Montreal Center
12:59PM 52.0000 -75.0833 208° Southwest 470 541 36,000  Level Montreal Center
01:00PM 51.8833 -75.1667 204° Southwest 460 529 36,000  Level Montreal Center
01:01PM 51.7833 -75.2500 207° Southwest 450 518 36,000  Level Montreal Center
01:02PM 51.6500 -75.3333 201° Southwest 460 529 36,000  Level Montreal Center
01:03PM 51.5500 -75.4500 216° Southwest 460 529 36,000  Level Montreal Center
01:04PM 51.4167 -75.5333 201° Southwest 460 529 36,000  Level Montreal Center
01:05PM 51.3167 -75.6167 208° Southwest 460 529 36,000  Level Montreal Center
01:06PM 51.1833 -75.7000 201° Southwest 460 529 36,000  Level Montreal Center
01:07PM 51.0833 -75.7833 208° Southwest 460 529 36,000  Level Montreal Center
01:08PM 50.9500 -75.8833 205° Southwest 460 529 36,000  Level Montreal Center
01:09PM 50.8500 -75.9667 208° Southwest 460 529 36,000  Level Montreal Center
01:10PM 50.7167 -76.0500 202° Southwest 460 529 36,000  Level Montreal Center
01:11PM 50.6167 -76.1500 212° Southwest 460 529 36,000  Level Montreal Center
01:12PM 50.5000 -76.2333 204° Southwest 460 529 36,000  Level Montreal Center
01:13PM 50.3833 -76.3167 204° Southwest 460 529 36,000  Level Montreal Center
01:14PM 50.2667 -76.3833 200° South 460 529 36,000  Level Montreal Center
01:15PM 50.1500 -76.4833 209° Southwest 470 541 36,000  Level Montreal Center
01:16PM 50.0167 -76.5667 202° Southwest 460 529 36,000  Level Montreal Center
01:17PM 49.8833 -76.6500 202° Southwest 470 541 36,000  Level Montreal Center
01:18PM 49.7833 -76.7167 203° Southwest 470 541 36,000  Level Montreal Center
01:19PM 49.6500 -76.8167 206° Southwest 470 541 36,000  Level Montreal Center
01:20PM 49.5333 -76.9000 205° Southwest 460 529 36,000  Level Montreal Center
01:21PM 49.4167 -77.0000 209° Southwest 490 564 36,000  Level Montreal Center
01:22PM 49.3000 -77.0667 200° South 490 564 36,000  Level Montreal Center
01:23PM 49.1833 -77.1500 205° Southwest 470 541 36,000  Level Montreal Center
01:24PM 49.0500 -77.2500 206° Southwest 490 564 36,000  Level Montreal Center
01:25PM 48.9167 -77.3167 198° South 480 552 36,000  Level Montreal Center
01:26PM 48.7833 -77.4167 206° Southwest 480 552 36,000  Level Montreal Center
01:27PM 48.6667 -77.5000 205° Southwest 480 552 36,000  Level Montreal Center
01:28PM 48.5500 -77.5667 201° Southwest 480 552 36,000  Level Montreal Center
01:29PM 48.4333 -77.6667 210° Southwest 490 564 36,000  Level Montreal Center
01:30PM 48.3000 -77.7333 198° South 490 564 36,000  Level Montreal Center
01:31PM 48.1833 -77.8333 210° Southwest 490 564 36,000  Level Montreal Center
01:32PM 48.0500 -77.9000 198° South 500 575 36,000  Level Montreal Center
01:33PM 47.9000 -77.9667 197° South 500 575 36,000  Level Montreal Center
01:34PM 47.7833 -78.0333 201° Southwest 500 575 36,000  Level Montreal Center
01:35PM 47.6500 -78.1333 207° Southwest 500 575 36,000  Level Montreal Center
01:36PM 47.5333 -78.2000 201° Southwest 500 575 36,000  Level Montreal Center
01:37PM 47.4000 -78.2667 199° South 500 575 36,000  Level Montreal Center
01:38PM 47.2667 -78.3500 203° Southwest 500 575 36,000  Level Montreal Center
01:39PM 47.1500 -78.4167 201° Southwest 500 575 36,000  Level Montreal Center
01:40PM 47.0000 -78.5000 201° Southwest 500 575 36,000  Level Montreal Center
01:41PM 46.8667 -78.5667 199° South 500 575 36,000  Level Montreal Center
01:42PM 46.7500 -78.6333 201° Southwest 500 575 36,000  Level Montreal Center
01:43PM 46.6167 -78.7333 207° Southwest 500 575 36,000  Level Montreal Center
01:44PM 46.4833 -78.8000 199° South 510 587 36,000  Level Montreal Center
01:45PM 46.3500 -78.8667 199° South 510 587 36,000  Level Montreal Center
01:46PM 46.2000 -78.9500 201° Southwest 510 587 36,000  Level Montreal Center
01:47PM 46.0833 -79.0167 202° Southwest 500 575 36,000  Level Montreal Center
01:48PM 45.9500 -79.0833 199° South 510 587 36,000  Level Montreal Center
01:49PM 45.8167 -79.1500 199° South 510 587 36,000  Level Montreal Center
01:50PM 45.6833 -79.2333 204° Southwest 510 587 36,000  Level Montreal Center
01:51PM 45.5500 -79.3000 199° South 510 587 36,000  Level Montreal Center
01:52PM 45.4167 -79.3500 195° South 510 587 36,000  Level Montreal Center
01:53PM 45.2667 -79.4500 205° Southwest 510 587 36,000  Level Montreal Center
01:54PM 45.1500 -79.5000 197° South 510 587 36,000  Level Montreal Center
01:55PM 45.0167 -79.5667 199° South 510 587 36,000  Level Montreal Center
01:56PM 44.8500 -79.6333 196° South 520 598 36,000  Level Toronto Center
01:57PM 44.7167 -79.7000 200° South 520 598 36,000  Level Toronto Center
01:58PM 44.6000 -79.7667 202° Southwest 510 587 36,000  Level Toronto Center
01:59PM 44.4667 -79.8667 208° Southwest 500 575 36,000  Level Toronto Center
02:05PM 43.8103 -80.4814 208° Southwest 495 570 36,000  Level FlightAware ADS-B (MDST / STI)
02:06PM 43.7285 -80.5531 212° Southwest 497 572 36,000  Level FlightAware ADS-B (CZBA)
02:07PM 43.6480 -80.6234 212° Southwest 494 568 36,000  Level FlightAware ADS-B (MDST / STI)
02:07PM 43.5500 -80.6833 212° Southwest 490 564 36,000  Level Toronto Center
02:08PM 43.4333 -80.7833 212° Southwest 490 564 36,000  Level Toronto Center
02:09PM 43.3167 -80.9000 216° Southwest 490 564 36,000  Level Toronto Center
02:10PM 43.2000 -80.9833 208° Southwest 490 564 36,000  Level Toronto Center
02:11PM 43.0833 -81.0667 208° Southwest 490 564 36,000  Level Toronto Center
02:12PM 42.9500 -81.1833 213° Southwest 500 575 36,000  Level Toronto Center
02:13PM 42.8661 -81.2539 212° Southwest 510 587 36,000  Level Cleveland Center
02:14PM 42.7375 -81.3353 205° Southwest 507 583 36,000  Level Cleveland Center
02:15PM 42.6081 -81.4144 204° Southwest 507 583 36,000  Level Cleveland Center
02:16PM 42.4794 -81.4914 204° Southwest 502 578 36,000  Level Cleveland Center
02:17PM 42.3314 -81.5822 204° Southwest 498 573 36,000  Level Cleveland Center
02:18PM 42.2042 -81.6586 204° Southwest 495 570 36,000  Level Cleveland Center
02:19PM 42.0778 -81.7344 204° Southwest 495 570 36,000  Level Cleveland Center
02:20PM 41.9528 -81.8097 204° Southwest 490 564 36,000  Level Cleveland Center
02:21PM 41.8286 -81.8828 204° Southwest 485 558 36,000  Level Cleveland Center
02:22PM 41.7069 -81.9542 204° Southwest 477 549 36,000  Level Cleveland Center
02:23PM 41.5867 -82.0269 204° Southwest 474 545 36,000  Level Cleveland Center
02:25PM 41.4464 -82.1103 204° Southwest 473 544 36,000  Level Cleveland Center
02:26PM 41.3242 -82.1742 201° Southwest 474 545 36,000  Level Cleveland Center
02:27PM 41.1931 -82.2189 194° South 485 558 36,000  Level Cleveland Center
02:28PM 41.0631 -82.2672 196° South 484 557 36,000  Level Cleveland Center
02:29PM 40.9336 -82.3139 195° South 480 552 36,000  Level Cleveland Center
02:29PM 40.8475 -82.3444 195° South 479 551 36,000  Level Indianapolis Center
02:30PM 40.7189 -82.3889 195° South 475 547 36,000  Level Indianapolis Center
02:31PM 40.5917 -82.4350 195° South 470 541 36,000  Level Indianapolis Center
02:32PM 40.4656 -82.4778 194° South 464 534 36,000  Level Indianapolis Center
02:33PM 40.3183 -82.5300 195° South 466 536 36,000  Level Indianapolis Center
02:34PM 40.2036 -82.5700 195° South 461 531 36,000  Level Indianapolis Center
02:35PM 40.0736 -82.5917 187° South 473 544 36,000  Level Indianapolis Center
02:37PM 39.9403 -82.6019 183° South 477 549 36,000  Level Indianapolis Center
02:38PM 39.8083 -82.6117 183° South 473 544 36,000  Level Indianapolis Center
02:39PM 39.6478 -82.6219 183° South 477 549 36,000  Level Indianapolis Center
02:40PM 39.5178 -82.6308 183° South 469 540 36,000  Level Indianapolis Center
02:41PM 39.3842 -82.6397 183° South 476 548 36,000  Level Indianapolis Center
02:42PM 39.2531 -82.6492 183° South 472 543 36,000  Level Indianapolis Center
02:43PM 39.1203 -82.6564 182° South 470 541 36,000  Level Indianapolis Center
02:44PM 38.9878 -82.6653 183° South 476 548 36,000  Level Indianapolis Center
02:45PM 38.8558 -82.6753 183° South 476 548 36,000  Level Indianapolis Center
02:51PM 37.9693 -82.7328 183° South 492 566 36,000  Level FlightAware ADS-B
02:52PM 37.8533 -82.7403 183° South 490 564 36,000  Level FlightAware ADS-B
02:53PM 37.7600 -82.7476 184° South 482 555 36,000  Level FlightAware ADS-B
02:53PM 37.6919 -82.7639 191° South 466 536 36,000  Level FlightAware ADS-B
02:53PM 37.6737 -82.7704 196° South 459 528 36,000  Level FlightAware ADS-B
02:54PM 37.6476 -82.7809 198° South 454 522 36,000  Level FlightAware ADS-B
02:54PM 37.5853 -82.8126 202° Southwest 442 509 36,000  Level FlightAware ADS-B
02:55PM 37.5305 -82.8481 207° Southwest 435 501 36,000  Level FlightAware ADS-B
02:55PM 37.4774 -82.8836 208° Southwest 436 502 36,000  Level FlightAware ADS-B
02:56PM 37.4235 -82.9191 208° Southwest 438 504 36,000  Level FlightAware ADS-B
02:56PM 37.3610 -82.9601 208° Southwest 438 504 36,000  Level FlightAware ADS-B
02:57PM 37.2994 -83.0005 208° Southwest 438 504 36,000  Level FlightAware ADS-B
02:57PM 37.2428 -83.0375 207° Southwest 437 503 36,000  Level FlightAware ADS-B
02:58PM 37.1895 -83.0722 207° Southwest 434 499 36,000  Level FlightAware ADS-B
02:58PM 37.1348 -83.1079 207° Southwest 433 498 36,000  Level FlightAware ADS-B
02:59PM 37.0810 -83.1430 207° Southwest 432 497 36,000  Level FlightAware ADS-B
02:59PM 37.0259 -83.1787 207° Southwest 432 497 36,000  Level FlightAware ADS-B
03:00PM 36.9707 -83.2146 207° Southwest 432 497 36,000  Level FlightAware ADS-B
03:00PM 36.9148 -83.2508 207° Southwest 432 497 36,000  Level FlightAware ADS-B
03:01PM 36.8611 -83.2855 207° Southwest 432 497 36,000  Level FlightAware ADS-B
03:02PM 36.7870 -83.3334 207° Southwest 432 497 36,000  Level FlightAware ADS-B
03:02PM 36.7306 -83.3698 207° Southwest 433 498 36,000  Level FlightAware ADS-B
03:03PM 36.6589 -83.4158 207° Southwest 433 498 36,000  Level FlightAware ADS-B
03:03PM 36.6054 -83.4501 207° Southwest 433 498 36,000  Level FlightAware ADS-B
03:04PM 36.5504 -83.4853 207° Southwest 433 498 36,000 60 Level FlightAware ADS-B
03:04PM 36.4966 -83.5198 207° Southwest 433 498 36,100 660 Climbing FlightAware ADS-B
03:05PM 36.4412 -83.5551 207° Southwest 432 497 36,700 840 Climbing FlightAware ADS-B
03:05PM 36.3873 -83.5896 207° Southwest 435 501 37,000 240 Climbing FlightAware ADS-B
03:06PM 36.3328 -83.6243 207° Southwest 434 499 37,000  Level FlightAware ADS-B
03:06PM 36.2691 -83.6647 207° Southwest 431 496 37,000  Level FlightAware ADS-B
03:07PM 36.2154 -83.6988 207° Southwest 432 497 37,000  Level FlightAware ADS-B
03:07PM 36.1594 -83.7343 207° Southwest 430 495 37,000  Level FlightAware ADS-B
03:08PM 36.1055 -83.7685 207° Southwest 429 494 37,000  Level FlightAware ADS-B
03:08PM 36.0518 -83.8024 207° Southwest 430 495 37,000  Level FlightAware ADS-B
03:09PM 35.9978 -83.8364 207° Southwest 430 495 37,000  Level FlightAware ADS-B
03:09PM 35.9586 -83.8607 207° Southwest 433 498 37,000  Level FlightAware ADS-B
03:09PM 35.9420 -83.8696 203° Southwest 438 504 37,000  Level FlightAware ADS-B
03:10PM 35.8822 -83.8951 199° South 450 518 37,000  Level FlightAware ADS-B
03:10PM 35.8179 -83.9140 193° South 461 531 37,000  Level FlightAware ADS-B
03:11PM 35.7538 -83.9302 192° South 459 528 37,000  Level FlightAware ADS-B
03:12PM 35.6910 -83.9465 192° South 462 532 37,000  Level FlightAware ADS-B
03:12PM 35.6237 -83.9632 191° South 465 535 37,000  Level FlightAware ADS-B
03:13PM 35.5543 -83.9801 191° South 467 537 37,000  Level FlightAware ADS-B
03:13PM 35.4876 -83.9961 191° South 468 539 37,000  Level FlightAware ADS-B
03:14PM 35.4199 -84.0125 191° South 470 541 37,000  Level FlightAware ADS-B
03:14PM 35.3517 -84.0289 191° South 471 542 37,000  Level FlightAware ADS-B
03:15PM 35.2872 -84.0444 191° South 472 543 37,000  Level FlightAware ADS-B
03:15PM 35.2223 -84.0600 191° South 473 544 37,000  Level FlightAware ADS-B
03:16PM 35.1579 -84.0755 191° South 474 545 37,000  Level FlightAware ADS-B
03:16PM 35.0920 -84.0912 191° South 473 544 37,000  Level FlightAware ADS-B
03:17PM 35.0261 -84.1070 191° South 472 543 37,000  Level FlightAware ADS-B
03:18PM 34.8840 -84.1409 191° South 473 544 37,000  Level FlightAware ADS-B
03:18PM 34.8192 -84.1563 191° South 476 548 37,000  Level FlightAware ADS-B
03:19PM 34.7554 -84.1715 191° South 475 547 37,000  Level FlightAware ADS-B
03:20PM 34.6047 -84.2072 191° South 474 545 37,000  Level FlightAware ADS-B
03:20PM 34.5395 -84.2226 191° South 474 545 37,000  Level FlightAware ADS-B
03:21PM 34.4706 -84.2389 191° South 473 544 37,000  Level FlightAware ADS-B
03:22PM 34.4048 -84.2543 191° South 470 541 37,000  Level FlightAware ADS-B
03:22PM 34.3409 -84.2692 191° South 468 539 37,000  Level FlightAware ADS-B
03:24PM 34.1005 -84.3256 191° South 464 534 37,000  Level FlightAware ADS-B
03:24PM 34.0373 -84.3403 191° South 462 532 37,000  Level FlightAware ADS-B
03:25PM 33.9716 -84.3556 191° South 460 529 37,000  Level FlightAware ADS-B
03:25PM 33.9088 -84.3702 191° South 458 527 37,000  Level FlightAware ADS-B
03:26PM 33.8449 -84.3851 191° South 457 526 37,000  Level FlightAware ADS-B
03:26PM 33.7778 -84.4007 191° South 458 527 37,000  Level FlightAware ADS-B
03:27PM 33.7156 -84.4151 191° South 459 528 37,000  Level FlightAware ADS-B
03:27PM 33.6812 -84.4229 191° South 460 529 37,000  Level FlightAware ADS-B
03:27PM 33.6709 -84.4250 190° South 462 532 37,000  Level FlightAware ADS-B
03:28PM 33.6153 -84.4318 186° South 472 543 37,000  Level FlightAware ADS-B
03:28PM 33.5255 -84.4320 180° South 477 549 37,000  Level FlightAware ADS-B
03:30PM 33.2818 -84.4280 179° South 473 544 37,000  Level FlightAware ADS-B
03:31PM 33.2197 -84.4311 179° South 473 544 37,000  Level Atlanta Center
03:32PM 33.0903 -84.4281 179° South 473 544 37,000  Level Atlanta Center
03:33PM 32.9586 -84.4250 179° South 468 539 37,000  Level Atlanta Center
03:34PM 32.8294 -84.4219 179° South 468 539 37,000  Level Atlanta Center
03:35PM 32.7186 -84.4167 178° South 468 539 37,000  Level Atlanta Center
03:36PM 32.5872 -84.4161 180° South 463 533 37,000  Level Atlanta Center
03:37PM 32.4619 -84.4131 179° South 457 526 37,000  Level Atlanta Center
03:38PM 32.3325 -84.4100 179° South 457 526 37,000  Level Atlanta Center
03:41PM 31.9550 -84.4033 179° South 452 520 37,000  Level Jacksonville Center
03:42PM 31.8297 -84.3989 178° South 457 526 37,000  Level Jacksonville Center
03:43PM 31.7025 -84.3967 179° South 457 526 37,000  Level Jacksonville Center
03:44PM 31.5750 -84.3972 180° South 457 526 37,000  Level Jacksonville Center
03:45PM 31.4500 -84.3928 178° South 457 526 37,000  Level Jacksonville Center
03:46PM 31.3267 -84.3908 179° South 457 526 37,000  Level Jacksonville Center
03:47PM 31.1911 -84.3886 179° South 457 526 37,000  Level Jacksonville Center
03:48PM 31.0658 -84.3842 178° South 457 526 37,000  Level Jacksonville Center
03:49PM 30.9406 -84.3822 179° South 457 526 37,000  Level Jacksonville Center
03:50PM 30.8175 -84.3803 179° South 457 526 37,000  Level Jacksonville Center
03:51PM 30.6922 -84.3783 179° South 457 526 37,000  Level Jacksonville Center
03:52PM 30.5672 -84.3497 169° South 457 526 37,000  Level Jacksonville Center
03:53PM 30.4444 -84.3022 162° South 462 532 37,000  Level Jacksonville Center
03:54PM 30.3264 -84.2258 151° Southeast 469 540 37,000  Level Jacksonville Center
03:55PM 30.2103 -84.1522 151° Southeast 474 545 37,000  Level Jacksonville Center
03:56PM 30.0919 -84.0714 149° Southeast 485 558 37,000 -60 Level Jacksonville Center
03:57PM 29.9736 -83.9956 151° Southeast 485 558 36,900  Descending Jacksonville Center
03:58PM 29.8553 -83.9200 151° Southeast 485 558 37,000  Climbing Jacksonville Center
03:59PM 29.7369 -83.8422 150° Southeast 485 558 37,000  Level Jacksonville Center
04:00PM 29.6267 -83.7717 151° Southeast 491 565 37,000  Level Jacksonville Center
04:01PM 29.5083 -83.6967 151° Southeast 491 565 37,000  Level Jacksonville Center
04:02PM 29.3897 -83.6219 151° Southeast 491 565 37,000  Level Jacksonville Center
04:03PM 29.2711 -83.5447 150° Southeast 491 565 37,000  Level Jacksonville Center
04:04PM 29.1567 -83.4681 150° Southeast 491 565 37,000  Level Jacksonville Center
04:05PM 29.0358 -83.3936 152° Southeast 485 558 37,000  Level Jacksonville Center
04:06PM 28.9214 -83.3172 150° Southeast 485 558 37,000  Level Jacksonville Center
04:07PM 28.8006 -83.2456 153° Southeast 480 552 37,000  Level Jacksonville Center
04:08PM 28.6858 -83.1719 151° Southeast 480 552 37,000  Level Jacksonville Center
04:09PM 28.5672 -83.0958 151° Southeast 480 552 37,000  Level Jacksonville Center
04:10PM 28.4503 -83.0225 151° Southeast 480 552 37,000  Level Jacksonville Center
04:11PM 28.2689 -82.9136 152° Southeast 485 558 37,000  Level Miami Center
04:12PM 28.1511 -82.8392 151° Southeast 485 558 37,000  Level Miami Center
04:13PM 28.0208 -82.7572 151° Southeast 485 558 37,000  Level Miami Center
04:14PM 27.9050 -82.6831 150° Southeast 485 558 37,000  Level Miami Center
04:15PM 27.7872 -82.6067 150° Southeast 480 552 37,000  Level Miami Center
04:16PM 27.6811 -82.5472 154° Southeast 485 558 37,000  Level Miami Center
04:17PM 27.5436 -82.5428 178° South 453 521 37,000  Level Miami Center
04:18PM 27.4183 -82.5436 180° South 453 521 37,000  Level Miami Center
04:19PM 27.2931 -82.5422 179° South 458 527 37,000  Level Miami Center
04:20PM 27.1722 -82.5431 180° South 458 527 37,000  Level Miami Center
04:21PM 27.0447 -82.5439 180° South 458 527 37,000  Level Miami Center
04:22PM 26.9133 -82.5444 180° South 463 533 37,000  Level Miami Center
04:23PM 26.7881 -82.5431 179° South 463 533 37,000  Level Miami Center
04:24PM 26.6567 -82.5389 178° South 463 533 37,000  Level Miami Center
04:26PM 26.5314 -82.5400 180° South 463 533 37,000  Level Miami Center
04:27PM 26.3792 -82.5394 180° South 463 533 37,000  Level Miami Center
04:28PM 26.2497 -82.5425 181° South 463 533 37,000  Level Miami Center
04:29PM 26.1206 -82.5364 178° South 463 533 37,000  Level Miami Center
04:30PM 25.9931 -82.5372 180° South 463 533 37,000  Level Miami Center
04:31PM 25.8786 -82.5319 178° South 463 533 37,000  Level Miami Center
04:32PM 25.7469 -82.5347 181° South 463 533 37,000  Level Miami Center
04:33PM 25.6175 -82.5333 179° South 463 533 37,000 -360 Level Miami Center
04:34PM 25.4881 -82.5319 179° South 463 533 36,300 -900 Descending Miami Center
04:35PM 25.3567 -82.5325 180° South 463 533 35,300 -1,020 Descending Miami Center
04:36PM 25.2294 -82.5289 179° South 468 539 34,300 -1,020 Descending Miami Center
04:37PM 25.0958 -82.5297 180° South 473 544 33,300 -1,020 Descending Miami Center
04:38PM 24.9664 -82.5283 179° South 473 544 32,300 -960 Descending Miami Center
04:39PM 24.8392 -82.5269 179° South 473 544 31,400 -960 Descending Miami Center
04:40PM 24.7139 -82.5281 180° South 466 536 30,400 -1,200 Descending Miami Center
04:41PM 24.5864 -82.5269 180° South 459 528 29,100 -1,380 Descending Miami Center
04:42PM 24.4656 -82.5236 179° South 454 522 27,700 -1,500 Descending Miami Center
04:43PM 24.3339 -82.5244 180° South 444 511 26,100 -1,500 Descending Miami Center
04:44PM 24.2172 -82.5214 179° South 432 497 24,700 -1,440 Descending Miami Center
04:45PM 24.1044 -82.5208 180° South 422 486 23,300 -1,440 Descending Miami Center
04:46PM 23.9917 -82.5203 180° South 412 474 21,900 -1,440 Descending Miami Center
04:48PM 23.7590 -82.4826 175° South  Level FlightAware Approximate
04:55PM 22.9891 -82.4091 180° South  Level Estimated
04:56PM 22.9891 -82.4091 180° South  Level Estimated
04:57PM 22.9891 -82.4091 180° South  Level Estimated
04:58PM 22.9891 -82.4091 180° South  Level Estimated
04:59PM 22.9891 -82.4091 180° South  Level Estimated
05:00PM 22.9891 -82.4091 180° South  Level Estimated
05:01PM 22.9891 -82.4091 180° South  Level Estimated
05:02PM 22.9891 -82.4091 180° South  Level Estimated
05:03PM 22.9891 -82.4091 180° South  Level Estimated
05:04PM 22.9891 -82.4091 180° South  Level Estimated
05:05PM 22.9891 -82.4091 180° South  Level Estimated
05:06PM 22.9891 -82.4091 180° South  Level Estimated
05:07PM 22.9891 -82.4091 180° South  Level Estimated
05:08PM 22.9891 -82.4091 180° South  Level Estimated
05:09PM 22.9891 -82.4091 180° South  Level Estimated
05:10PM 22.9891 -82.4091 180° South  Level Estimated
05:11PM 22.9891 -82.4091 180° South  Level Estimated
05:12PM 22.9891 -82.4091 180° South  Level Estimated
05:13PM 22.9891 -82.4091 180° South  Level Estimated
05:14PM 22.9891 -82.4091 180° South  Level Estimated
05:15PM 22.9891 -82.4091 180° South  Level Estimated
05:16PM 22.9891 -82.4091 180° South  Level Estimated
05:17PM 22.9891 -82.4091 180° South  Level Estimated